Time;durP1;ratioP1;P1;durP2;ratioP2;P2;SDS_P1;SDS_P2;PMS_P1;PMS_P2;Temp;Humidity;BMP_temperature;BMP_pressure;BME280_temperature;BME280_humidity;BME280_pressure;Samples;Min_cycle;Max_cycle;Signal;HPM_P1;HPM_P2
2021/08/09 00:01:59;;;;;;;2.40;2.00;;;16.60;99.90;;;;;;5019327;28;20434;-49
2021/08/09 00:04:26;;;;;;;5.13;2.47;;;16.60;99.90;;;;;;5019101;28;20453;-48
2021/08/09 00:06:53;;;;;;;6.80;2.40;;;16.50;99.90;;;;;;5019118;28;20481;-52
2021/08/09 00:09:21;;;;;;;2.80;2.40;;;16.40;99.90;;;;;;5017997;28;20430;-53
2021/08/09 00:11:48;;;;;;;4.93;3.03;;;16.40;99.90;;;;;;5018531;28;20517;-52
2021/08/09 00:14:14;;;;;;;3.10;2.80;;;16.30;99.90;;;;;;5018645;28;20446;-53
2021/08/09 00:16:41;;;;;;;2.57;2.13;;;16.30;99.90;;;;;;5018351;28;20474;-52
2021/08/09 00:19:08;;;;;;;2.60;2.10;;;16.20;99.90;;;;;;5018515;28;20437;-50
2021/08/09 00:21:34;;;;;;;3.00;2.57;;;16.20;99.90;;;;;;5018735;28;20438;-51
2021/08/09 00:24:01;;;;;;;3.50;2.43;;;16.20;99.90;;;;;;5018777;28;20423;-49
2021/08/09 00:26:30;;;;;;;2.87;2.20;;;16.20;99.90;;;;;;5018331;28;20457;-50
2021/08/09 00:28:57;;;;;;;2.37;2.00;;;16.10;99.90;;;;;;5018603;28;20470;-49
2021/08/09 00:31:23;;;;;;;3.90;2.57;;;16.10;99.90;;;;;;5018727;28;20497;-51
2021/08/09 00:33:50;;;;;;;3.33;2.60;;;16.00;99.90;;;;;;5018553;28;20446;-51
2021/08/09 00:36:17;;;;;;;7.50;2.57;;;16.00;99.90;;;;;;5018370;28;20482;-49
2021/08/09 00:38:43;;;;;;;4.13;2.30;;;16.00;99.90;;;;;;5018155;28;20446;-53
2021/08/09 00:41:10;;;;;;;2.53;2.20;;;15.90;99.90;;;;;;5017661;28;20454;-50
2021/08/09 00:43:38;;;;;;;3.10;2.03;;;15.90;99.90;;;;;;5017997;28;20441;-47
2021/08/09 00:46:05;;;;;;;2.70;2.50;;;15.90;99.90;;;;;;5018290;28;20461;-52
2021/08/09 00:48:34;;;;;;;3.90;2.20;;;15.90;99.90;;;;;;5017948;28;20446;-48
2021/08/09 00:51:01;;;;;;;5.83;2.77;;;15.90;99.90;;;;;;5017860;28;20477;-50
2021/08/09 00:53:28;;;;;;;2.90;2.40;;;15.90;99.90;;;;;;5018044;28;20458;-51
2021/08/09 00:55:55;;;;;;;4.20;2.10;;;15.90;99.90;;;;;;5017373;28;20466;-50
2021/08/09 00:58:22;;;;;;;3.37;2.27;;;15.80;99.90;;;;;;5017746;28;20473;-51
2021/08/09 01:00:50;;;;;;;2.10;1.87;;;15.80;99.90;;;;;;5017822;28;20439;-50
2021/08/09 01:03:17;;;;;;;4.87;2.50;;;15.80;99.90;;;;;;5017498;28;20473;-49
2021/08/09 01:05:46;;;;;;;3.37;2.20;;;15.80;99.90;;;;;;5017416;28;20505;-50
2021/08/09 01:08:23;;;;;;;3.33;2.50;;;15.80;99.90;;;;;;5017616;28;20454;-51
2021/08/09 01:10:57;;;;;;;3.47;2.30;;;15.80;99.90;;;;;;5017750;28;20434;-52
2021/08/09 01:13:28;;;;;;;2.90;2.37;;;15.70;99.90;;;;;;5017790;28;20469;-52
2021/08/09 01:16:01;;;;;;;3.33;2.23;;;15.70;99.90;;;;;;5017181;28;20505;-45
2021/08/09 01:18:32;;;;;;;3.93;3.57;;;15.70;99.90;;;;;;5016857;28;20419;-45
2021/08/09 01:21:01;;;;;;;5.73;2.67;;;15.60;99.90;;;;;;5016515;28;20422;-45
2021/08/09 01:23:46;;;;;;;2.77;2.27;;;15.60;99.90;;;;;;5016354;28;20469;-44
2021/08/09 01:26:23;;;;;;;4.10;2.47;;;15.50;99.90;;;;;;5016845;28;20486;-45
2021/08/09 01:28:54;;;;;;;3.77;2.37;;;15.50;99.90;;;;;;5017034;28;20469;-46
2021/08/09 01:31:21;;;;;;;3.40;2.63;;;15.50;99.90;;;;;;5017070;28;20453;-45
2021/08/09 01:33:49;;;;;;;6.23;2.17;;;15.50;99.90;;;;;;5016703;28;20446;-46
2021/08/09 01:36:16;;;;;;;3.60;2.73;;;15.50;99.90;;;;;;5016620;28;20478;-46
2021/08/09 01:38:47;;;;;;;4.67;2.10;;;15.50;99.90;;;;;;5016876;28;20422;-48
2021/08/09 01:41:15;;;;;;;4.20;2.00;;;15.50;99.90;;;;;;5016931;28;20426;-47
2021/08/09 01:43:42;;;;;;;3.20;2.00;;;15.50;99.90;;;;;;5016589;28;20445;-47
2021/08/09 01:46:12;;;;;;;3.20;2.20;;;15.50;99.90;;;;;;5016658;28;20438;-48
2021/08/09 01:48:46;;;;;;;3.87;1.70;;;15.40;99.90;;;;;;5017074;28;20441;-46
2021/08/09 01:51:13;;;;;;;2.73;2.00;;;15.40;99.90;;;;;;5016885;28;20469;-47
2021/08/09 01:53:42;;;;;;;2.40;1.80;;;15.30;99.90;;;;;;5016690;28;20441;-52
2021/08/09 01:56:10;;;;;;;2.47;2.10;;;15.30;99.90;;;;;;5016646;28;20481;-49
2021/08/09 01:58:37;;;;;;;2.17;1.47;;;15.30;99.90;;;;;;5017489;28;20487;-51
2021/08/09 02:01:05;;;;;;;3.50;1.90;;;15.30;99.90;;;;;;5016963;28;20450;-47
2021/08/09 02:03:35;;;;;;;2.70;2.20;;;15.30;99.90;;;;;;5016769;28;20481;-50
2021/08/09 02:06:01;;;;;;;2.50;1.67;;;15.30;99.90;;;;;;5016789;28;20426;-50
2021/08/09 02:08:29;;;;;;;3.00;2.23;;;15.30;99.90;;;;;;5016974;28;20442;-50
2021/08/09 02:11:01;;;;;;;2.77;1.63;;;15.30;99.90;;;;;;5016647;28;20473;-51
2021/08/09 02:13:33;;;;;;;2.60;1.87;;;15.30;99.90;;;;;;5016583;28;20566;-51
2021/08/09 02:16:02;;;;;;;3.70;1.93;;;15.40;99.90;;;;;;5016577;28;20466;-51
2021/08/09 02:18:40;;;;;;;2.00;1.80;;;15.30;99.90;;;;;;5016431;28;20580;-52
2021/08/09 02:21:12;;;;;;;2.70;2.07;;;15.30;99.90;;;;;;5017080;28;20532;-47
2021/08/09 02:23:45;;;;;;;4.03;2.40;;;15.30;99.90;;;;;;5017339;28;20433;-45
2021/08/09 02:26:12;;;;;;;5.30;2.13;;;15.30;99.90;;;;;;5016792;28;20433;-45
2021/08/09 02:28:45;;;;;;;2.77;1.80;;;15.20;99.90;;;;;;5017120;28;20512;-45
2021/08/09 02:31:12;;;;;;;3.03;1.90;;;15.20;99.90;;;;;;5016787;28;20422;-50
2021/08/09 02:33:42;;;;;;;2.53;1.77;;;15.10;99.90;;;;;;5020948;28;20438;-50
2021/08/09 02:36:10;;;;;;;6.10;2.03;;;15.10;99.90;;;;;;5022002;28;20469;-49
2021/08/09 02:38:37;;;;;;;4.50;1.97;;;15.10;99.90;;;;;;5020912;28;20467;-49
2021/08/09 02:41:04;;;;;;;2.27;2.00;;;15.10;99.90;;;;;;5020242;28;20469;-52
2021/08/09 02:43:32;;;;;;;2.50;2.13;;;15.20;99.90;;;;;;5019712;28;20477;-45
2021/08/09 02:45:59;;;;;;;2.23;2.03;;;15.10;99.90;;;;;;5020188;28;20509;-50
2021/08/09 02:48:27;;;;;;;3.50;1.97;;;15.10;99.90;;;;;;5019739;28;20464;-46
2021/08/09 02:50:57;;;;;;;2.37;1.90;;;15.10;99.90;;;;;;5019799;28;20474;-47
2021/08/09 02:53:25;;;;;;;3.63;2.20;;;15.10;99.90;;;;;;5020140;28;20429;-46
2021/08/09 02:55:57;;;;;;;2.10;1.90;;;15.20;99.90;;;;;;5019745;28;20577;-52
2021/08/09 02:58:24;;;;;;;3.53;1.70;;;15.20;99.90;;;;;;5019587;28;20446;-50
2021/08/09 03:00:53;;;;;;;2.80;1.67;;;15.20;99.90;;;;;;5020363;28;20429;-49
2021/08/09 03:03:22;;;;;;;4.03;1.80;;;15.20;99.90;;;;;;5019915;28;20450;-51
2021/08/09 03:05:50;;;;;;;3.00;2.03;;;15.10;99.90;;;;;;5019862;28;20467;-50
2021/08/09 03:08:19;;;;;;;2.70;2.20;;;15.00;99.90;;;;;;5020072;28;20477;-52
2021/08/09 03:10:47;;;;;;;2.97;1.80;;;15.00;99.90;;;;;;5020135;28;20477;-48
2021/08/09 03:13:17;;;;;;;4.10;1.90;;;15.00;99.90;;;;;;5020057;28;20485;-50
2021/08/09 03:15:43;;;;;;;5.23;2.20;;;15.00;99.90;;;;;;5019266;28;20445;-50
2021/08/09 03:18:10;;;;;;;3.50;2.10;;;15.00;99.90;;;;;;5020372;28;20508;-49
2021/08/09 03:20:37;;;;;;;15.87;2.50;;;15.00;99.90;;;;;;5019912;28;20441;-50
2021/08/09 03:23:04;;;;;;;2.60;1.90;;;15.00;99.90;;;;;;5020130;28;20426;-50
2021/08/09 03:25:32;;;;;;;3.00;2.37;;;15.00;99.90;;;;;;5020120;28;20485;-56
2021/08/09 03:27:59;;;;;;;3.23;2.23;;;14.90;99.90;;;;;;5019934;28;20430;-48
2021/08/09 03:30:27;;;;;;;10.73;2.37;;;15.00;99.90;;;;;;5020186;28;20458;-52
2021/08/09 03:32:54;;;;;;;7.67;2.93;;;15.00;99.90;;;;;;5020247;28;20469;-51
2021/08/09 03:35:21;;;;;;;15.10;2.27;;;15.00;99.90;;;;;;5020108;28;20465;-53
2021/08/09 03:37:48;;;;;;;2.60;2.17;;;14.90;99.90;;;;;;5019402;28;20474;-52
2021/08/09 03:40:15;;;;;;;2.87;1.87;;;14.90;99.90;;;;;;5018968;28;20457;-52
2021/08/09 03:42:43;;;;;;;4.23;1.93;;;14.90;99.90;;;;;;5020817;28;20434;-46
2021/08/09 03:45:10;;;;;;;5.00;2.33;;;14.90;99.90;;;;;;5020528;28;20438;-48
2021/08/09 03:47:37;;;;;;;3.40;2.60;;;14.90;99.90;;;;;;5020756;28;20451;-52
2021/08/09 03:50:04;;;;;;;2.63;2.33;;;14.80;99.90;;;;;;5020358;28;20493;-49
2021/08/09 03:52:31;;;;;;;3.50;2.67;;;14.80;99.90;;;;;;5020522;28;20442;-49
2021/08/09 03:54:58;;;;;;;7.50;2.73;;;14.80;99.90;;;;;;5020224;28;20430;-50
2021/08/09 03:57:26;;;;;;;4.27;2.73;;;14.80;99.90;;;;;;5020146;28;20517;-49
2021/08/09 03:59:54;;;;;;;3.63;2.33;;;14.80;99.90;;;;;;5018484;28;20477;-50
2021/08/09 04:02:27;;;;;;;6.27;2.80;;;14.80;99.90;;;;;;5018696;28;20540;-49
2021/08/09 04:04:57;;;;;;;3.90;3.00;;;14.70;99.90;;;;;;5018529;28;20767;-48
2021/08/09 04:07:24;;;;;;;4.20;2.50;;;14.70;99.90;;;;;;5018927;28;20505;-50
2021/08/09 04:09:50;;;;;;;5.53;2.63;;;14.70;99.90;;;;;;5018494;28;20460;-53
2021/08/09 04:12:17;;;;;;;6.63;3.37;;;14.70;99.90;;;;;;5018189;28;20441;-53
2021/08/09 04:14:45;;;;;;;3.40;2.90;;;14.70;99.90;;;;;;5018177;28;20450;-51
2021/08/09 04:17:13;;;;;;;3.43;3.13;;;14.60;99.90;;;;;;5018520;28;20478;-53
2021/08/09 04:19:40;;;;;;;2.93;2.33;;;14.70;99.90;;;;;;5019883;28;20473;-53
2021/08/09 04:22:07;;;;;;;5.17;2.70;;;14.70;99.90;;;;;;5020308;28;20442;-48
2021/08/09 04:24:34;;;;;;;4.50;2.97;;;14.80;99.90;;;;;;5020255;28;20474;-46
2021/08/09 04:27:01;;;;;;;5.63;3.07;;;14.80;99.90;;;;;;5020208;28;20446;-52
2021/08/09 04:29:27;;;;;;;5.20;2.70;;;14.70;99.90;;;;;;5019393;28;20450;-51
2021/08/09 04:31:57;;;;;;;5.37;3.27;;;14.70;99.90;;;;;;5018621;28;20438;-52
2021/08/09 04:34:27;;;;;;;3.97;2.80;;;14.70;99.90;;;;;;5018776;28;20430;-51
2021/08/09 04:36:53;;;;;;;5.50;3.90;;;14.80;99.90;;;;;;5018352;28;20458;-51
2021/08/09 04:39:20;;;;;;;4.53;2.90;;;14.80;99.90;;;;;;5017921;28;20508;-51
2021/08/09 04:41:47;;;;;;;4.30;3.07;;;14.80;99.90;;;;;;5017867;28;20446;-53
2021/08/09 04:44:15;;;;;;;4.03;2.97;;;14.80;99.90;;;;;;5018212;28;20453;-49
2021/08/09 04:46:42;;;;;;;3.60;3.20;;;14.90;99.90;;;;;;5017528;28;20501;-52
2021/08/09 04:49:09;;;;;;;4.00;3.07;;;14.90;99.90;;;;;;5018076;28;20442;-52
2021/08/09 04:51:40;;;;;;;4.30;3.73;;;14.90;99.90;;;;;;5018013;28;20486;-42
2021/08/09 04:54:06;;;;;;;3.10;2.57;;;14.90;99.90;;;;;;5017686;28;20430;-44
2021/08/09 04:56:33;;;;;;;4.07;2.83;;;14.90;99.90;;;;;;5017500;28;20485;-41
2021/08/09 04:59:01;;;;;;;5.27;2.83;;;15.00;99.90;;;;;;5018683;28;20474;-41
2021/08/09 05:01:28;;;;;;;5.13;3.07;;;15.00;99.90;;;;;;5018221;28;20434;-44
2021/08/09 05:03:55;;;;;;;5.10;3.07;;;15.00;99.90;;;;;;5018739;28;20430;-43
2021/08/09 05:06:23;;;;;;;4.27;3.00;;;15.00;99.90;;;;;;5018831;28;20426;-45
2021/08/09 05:08:51;;;;;;;9.20;3.37;;;15.10;99.90;;;;;;5019391;28;20485;-47
2021/08/09 05:11:19;;;;;;;8.03;3.33;;;15.10;99.90;;;;;;5017972;28;20450;-44
2021/08/09 05:13:46;;;;;;;4.20;3.10;;;15.10;99.90;;;;;;5017445;28;20438;-46
2021/08/09 05:16:13;;;;;;;4.10;2.80;;;15.20;99.90;;;;;;5016739;28;20481;-44
2021/08/09 05:18:39;;;;;;;4.17;2.30;;;15.30;99.90;;;;;;5017151;28;20485;-47
2021/08/09 05:21:06;;;;;;;5.67;2.90;;;15.40;99.90;;;;;;5017553;28;20860;-45
2021/08/09 05:23:33;;;;;;;4.13;3.20;;;15.40;99.90;;;;;;5018012;28;20442;-47
2021/08/09 05:26:01;;;;;;;5.70;3.30;;;15.40;99.90;;;;;;5017580;28;20449;-49
2021/08/09 05:28:30;;;;;;;4.97;2.70;;;15.50;99.90;;;;;;5017225;28;20448;-45
2021/08/09 05:30:57;;;;;;;4.23;3.03;;;15.50;99.90;;;;;;5017147;28;20487;-47
2021/08/09 05:33:23;;;;;;;3.70;2.60;;;15.50;99.90;;;;;;5016549;28;20426;-48
2021/08/09 05:35:50;;;;;;;6.60;2.80;;;15.60;99.90;;;;;;5016655;28;20500;-48
2021/08/09 05:38:17;;;;;;;4.03;2.50;;;15.70;99.90;;;;;;5017166;28;20508;-42
2021/08/09 05:40:44;;;;;;;6.20;2.97;;;15.70;99.90;;;;;;5017693;28;20518;-44
2021/08/09 05:43:12;;;;;;;4.20;2.73;;;15.80;99.90;;;;;;5016958;28;20464;-47
2021/08/09 05:45:39;;;;;;;3.23;2.53;;;15.80;99.90;;;;;;5016358;28;20461;-49
2021/08/09 05:48:06;;;;;;;4.00;3.03;;;15.90;99.90;;;;;;5016611;28;20448;-45
2021/08/09 05:50:32;;;;;;;4.10;2.80;;;15.90;99.90;;;;;;5016589;28;20486;-47
2021/08/09 05:52:59;;;;;;;4.70;2.50;;;16.00;99.90;;;;;;5017004;28;20510;-47
2021/08/09 05:55:26;;;;;;;2.93;2.30;;;16.10;99.90;;;;;;5016928;28;20437;-47
2021/08/09 05:57:53;;;;;;;4.73;2.27;;;16.30;99.90;;;;;;5016599;28;20480;-47
2021/08/09 06:00:21;;;;;;;6.17;2.70;;;16.40;99.90;;;;;;5017174;28;20446;-45
2021/08/09 06:02:47;;;;;;;8.00;3.33;;;16.50;99.90;;;;;;5017105;28;20445;-49
2021/08/09 06:05:15;;;;;;;3.50;3.00;;;16.50;99.90;;;;;;5017471;28;20450;-45
2021/08/09 06:07:41;;;;;;;3.50;2.60;;;16.70;99.90;;;;;;5018910;28;20489;-46
2021/08/09 06:10:09;;;;;;;3.73;2.47;;;16.80;99.90;;;;;;5021146;28;20445;-45
2021/08/09 06:12:37;;;;;;;7.10;2.90;;;16.90;99.90;;;;;;5020667;28;20426;-44
2021/08/09 06:15:05;;;;;;;3.87;2.60;;;17.00;99.90;;;;;;5020900;28;20454;-47
2021/08/09 06:17:33;;;;;;;4.70;2.47;;;17.00;99.90;;;;;;5020397;28;20470;-47
2021/08/09 06:20:03;;;;;;;4.67;1.90;;;17.10;99.90;;;;;;5020500;28;20446;-49
2021/08/09 06:22:29;;;;;;;3.07;2.67;;;17.10;99.90;;;;;;5020651;28;20438;-50
2021/08/09 06:24:56;;;;;;;5.23;2.77;;;17.10;99.90;;;;;;5020570;28;20469;-48
2021/08/09 06:27:23;;;;;;;4.20;2.20;;;17.20;99.90;;;;;;5020191;28;20438;-45
2021/08/09 06:29:53;;;;;;;3.13;2.27;;;17.30;99.90;;;;;;5020342;28;20469;-46
2021/08/09 06:32:19;;;;;;;8.40;2.87;;;17.30;99.90;;;;;;5020609;28;20418;-47
2021/08/09 06:34:47;;;;;;;4.57;3.03;;;17.50;99.90;;;;;;5020715;28;20465;-49
2021/08/09 06:37:15;;;;;;;4.17;2.50;;;17.60;99.90;;;;;;5020830;28;20473;-47
2021/08/09 06:39:41;;;;;;;3.30;2.30;;;17.70;99.90;;;;;;5020671;28;20467;-46
2021/08/09 06:42:08;;;;;;;4.53;3.10;;;17.90;99.90;;;;;;5020457;28;20509;-49
2021/08/09 06:44:37;;;;;;;3.47;2.23;;;17.90;99.90;;;;;;5020941;28;20442;-50
2021/08/09 06:47:04;;;;;;;3.00;1.90;;;18.00;99.90;;;;;;5020673;28;20446;-48
2021/08/09 06:49:31;;;;;;;5.23;2.30;;;18.10;99.90;;;;;;5019742;28;20441;-45
2021/08/09 06:51:58;;;;;;;3.27;2.97;;;18.30;99.90;;;;;;5019759;28;20478;-50
2021/08/09 06:54:28;;;;;;;3.30;1.90;;;18.40;99.90;;;;;;5020249;28;20441;-47
2021/08/09 06:56:54;;;;;;;2.97;2.30;;;18.50;99.90;;;;;;5019650;28;20438;-48
2021/08/09 06:59:21;;;;;;;2.37;1.93;;;18.60;99.90;;;;;;5020327;28;20437;-47
2021/08/09 07:01:47;;;;;;;2.97;1.93;;;18.70;99.90;;;;;;5020355;28;20418;-50
2021/08/09 07:04:14;;;;;;;5.47;2.10;;;18.70;99.90;;;;;;5020226;28;20422;-48
2021/08/09 07:06:41;;;;;;;4.40;2.20;;;18.70;99.90;;;;;;5020049;28;20434;-49
2021/08/09 07:09:09;;;;;;;3.23;2.40;;;18.70;99.90;;;;;;5020365;28;20429;-48
2021/08/09 07:11:36;;;;;;;4.50;2.30;;;18.70;99.90;;;;;;5020200;28;20433;-48
2021/08/09 07:14:03;;;;;;;2.60;2.17;;;18.80;99.90;;;;;;5020411;28;20429;-49
2021/08/09 07:16:30;;;;;;;4.70;3.00;;;18.80;99.90;;;;;;5020363;28;20446;-47
2021/08/09 07:18:57;;;;;;;3.83;2.50;;;18.90;99.90;;;;;;5019238;28;20480;-48
2021/08/09 07:21:25;;;;;;;5.30;2.40;;;19.00;99.90;;;;;;5019822;28;20734;-45
2021/08/09 07:23:52;;;;;;;3.67;2.67;;;19.10;99.90;;;;;;5019839;28;20423;-49
2021/08/09 07:26:20;;;;;;;3.17;2.20;;;19.10;99.90;;;;;;5019699;28;20454;-46
2021/08/09 07:28:47;;;;;;;2.97;2.17;;;19.10;99.90;;;;;;5020005;28;20438;-50
2021/08/09 07:31:13;;;;;;;4.70;2.80;;;19.20;99.90;;;;;;5020088;28;20426;-48
2021/08/09 07:33:40;;;;;;;3.00;2.10;;;19.30;99.90;;;;;;5019936;28;20450;-48
2021/08/09 07:36:07;;;;;;;3.43;2.40;;;19.40;99.90;;;;;;5020566;28;20434;-48
2021/08/09 07:38:34;;;;;;;2.37;2.00;;;19.50;99.90;;;;;;5020154;28;20569;-48
2021/08/09 07:41:01;;;;;;;5.43;2.37;;;19.60;99.90;;;;;;5020589;28;20476;-45
2021/08/09 07:43:29;;;;;;;2.80;2.20;;;19.60;99.90;;;;;;5020740;28;20434;-46
2021/08/09 07:45:56;;;;;;;11.40;3.00;;;19.70;99.90;;;;;;5020525;28;20438;-45
2021/08/09 07:48:22;;;;;;;5.93;3.10;;;19.80;99.90;;;;;;5019972;28;20480;-47
2021/08/09 07:50:50;;;;;;;12.80;3.73;;;20.00;99.90;;;;;;5020175;28;20473;-48
2021/08/09 07:53:16;;;;;;;5.20;2.80;;;20.10;99.90;;;;;;5020368;28;20446;-43
2021/08/09 07:55:43;;;;;;;4.27;2.47;;;20.30;99.90;;;;;;5020028;28;20454;-47
2021/08/09 07:58:10;;;;;;;3.93;2.67;;;20.40;99.90;;;;;;5019644;28;20481;-43
2021/08/09 08:00:39;;;;;;;3.93;3.10;;;20.50;99.90;;;;;;5020439;28;20493;-42
2021/08/09 08:03:07;;;;;;;5.13;2.93;;;20.50;99.90;;;;;;5020359;28;20442;-41
2021/08/09 08:05:34;;;;;;;4.93;3.60;;;20.50;99.90;;;;;;5019741;28;20423;-43
2021/08/09 08:08:00;;;;;;;3.43;2.80;;;20.50;99.90;;;;;;5019677;28;20434;-45
2021/08/09 08:10:29;;;;;;;3.47;2.23;;;20.50;99.90;;;;;;5020089;28;20449;-42
2021/08/09 08:12:56;;;;;;;5.00;2.80;;;20.40;99.90;;;;;;5019567;28;20450;-45
2021/08/09 08:15:22;;;;;;;3.10;2.47;;;20.30;99.90;;;;;;5019722;28;20460;-45
2021/08/09 08:17:51;;;;;;;9.00;3.93;;;20.30;99.90;;;;;;5019762;28;20461;-47
2021/08/09 08:20:18;;;;;;;3.93;2.50;;;20.20;99.90;;;;;;5019906;28;20442;-44
2021/08/09 08:22:44;;;;;;;2.50;2.20;;;20.10;99.90;;;;;;5019849;28;20442;-46
2021/08/09 08:25:11;;;;;;;4.63;3.30;;;20.00;99.90;;;;;;5019653;28;20489;-47
2021/08/09 08:27:38;;;;;;;7.37;4.07;;;20.00;99.90;;;;;;5019016;28;20442;-42
2021/08/09 08:30:07;;;;;;;4.43;3.00;;;20.00;99.90;;;;;;5018100;28;20426;-44
2021/08/09 08:32:33;;;;;;;4.47;3.00;;;20.00;99.90;;;;;;5019701;28;20462;-40
2021/08/09 08:35:02;;;;;;;4.00;2.77;;;20.00;99.90;;;;;;5019655;28;20438;-46
2021/08/09 08:37:29;;;;;;;4.47;2.40;;;20.00;99.90;;;;;;5019328;28;20484;-44
2021/08/09 08:39:56;;;;;;;5.53;2.70;;;20.00;99.90;;;;;;5019302;28;20441;-49
2021/08/09 08:42:22;;;;;;;7.83;2.23;;;20.10;99.90;;;;;;5019423;28;20458;-44
2021/08/09 08:44:49;;;;;;;4.50;2.40;;;20.10;99.90;;;;;;5019746;28;20442;-47
2021/08/09 08:47:18;;;;;;;5.63;2.13;;;20.20;99.90;;;;;;5019733;28;20453;-50
2021/08/09 08:49:45;;;;;;;9.33;2.50;;;20.30;99.90;;;;;;5019356;28;20433;-50
2021/08/09 08:52:14;;;;;;;4.67;3.27;;;20.40;99.90;;;;;;5019484;28;20446;-46
2021/08/09 08:54:41;;;;;;;4.57;2.83;;;20.50;99.90;;;;;;5019456;28;20457;-47
2021/08/09 08:57:17;;;;;;;6.23;4.13;;;20.50;99.90;;;;;;5018877;28;20450;-48
2021/08/09 08:59:44;;;;;;;10.10;2.33;;;20.70;99.90;;;;;;5018463;28;20461;-50
2021/08/09 09:02:30;;;;;;;3.00;2.33;;;20.70;99.90;;;;;;5018601;28;20430;-48
2021/08/09 09:05:16;;;;;;;4.00;3.40;;;20.80;99.90;;;;;;5018028;28;20426;-49
2021/08/09 09:07:47;;;;;;;4.27;2.90;;;20.90;99.90;;;;;;5018095;28;20426;-47
2021/08/09 09:10:20;;;;;;;4.80;3.07;;;20.90;99.90;;;;;;5018230;28;20426;-49
2021/08/09 09:13:06;;;;;;;4.00;2.50;;;20.90;99.90;;;;;;5018040;28;20517;-44
2021/08/09 09:15:54;;;;;;;3.50;2.30;;;20.90;99.90;;;;;;5018315;28;20437;-49
2021/08/09 09:18:21;;;;;;;4.53;2.87;;;21.00;99.90;;;;;;5017908;28;20474;-47
2021/08/09 09:20:48;;;;;;;3.60;2.63;;;21.00;99.90;;;;;;5017988;28;20426;-46
2021/08/09 09:23:18;;;;;;;4.70;3.43;;;21.20;99.90;;;;;;5017665;28;20429;-46
2021/08/09 09:25:45;;;;;;;2.70;2.20;;;21.60;99.90;;;;;;5017834;28;20442;-48
2021/08/09 09:28:33;;;;;;;4.67;2.90;;;21.80;99.90;;;;;;5017658;28;20506;-47
2021/08/09 09:31:02;;;;;;;3.27;2.27;;;21.90;99.90;;;;;;5018019;28;20425;-46
2021/08/09 09:33:33;;;;;;;6.73;3.20;;;21.70;99.90;;;;;;5017642;28;20442;-56
2021/08/09 09:36:03;;;;;;;7.30;2.77;;;21.60;99.90;;;;;;5018119;28;20476;-49
2021/08/09 09:38:40;;;;;;;4.17;2.73;;;21.60;99.90;;;;;;5017593;28;20457;-49
2021/08/09 09:41:08;;;;;;;5.87;3.13;;;22.00;99.90;;;;;;5017274;28;20458;-50
2021/08/09 09:43:40;;;;;;;6.90;2.50;;;22.60;99.90;;;;;;5017670;28;20514;-48
2021/08/09 09:46:07;;;;;;;4.10;2.87;;;23.50;99.90;;;;;;5017354;28;20442;-44
2021/08/09 09:48:35;;;;;;;8.80;3.70;;;24.50;99.90;;;;;;5017292;28;20422;-49
2021/08/09 09:51:10;;;;;;;4.00;2.80;;;25.20;99.90;;;;;;5017372;28;20500;-50
2021/08/09 09:53:38;;;;;;;4.70;3.30;;;25.30;99.90;;;;;;5017564;28;20446;-48
2021/08/09 09:56:05;;;;;;;3.37;2.70;;;25.60;99.90;;;;;;5017245;28;20442;-47
2021/08/09 09:58:33;;;;;;;5.57;2.70;;;25.70;99.90;;;;;;5017397;28;20473;-45
2021/08/09 10:01:00;;;;;;;2.83;2.50;;;25.20;99.90;;;;;;5017013;28;20434;-49
2021/08/09 10:03:27;;;;;;;3.40;2.60;;;24.90;99.90;;;;;;5017008;28;20518;-45
2021/08/09 10:05:57;;;;;;;3.70;2.43;;;24.80;99.90;;;;;;5017361;28;20509;-49
2021/08/09 10:08:28;;;;;;;2.63;2.00;;;24.40;99.90;;;;;;5017169;28;20421;-47
2021/08/09 10:10:59;;;;;;;2.80;2.47;;;24.30;99.90;;;;;;5017163;28;20430;-47
2021/08/09 10:13:28;;;;;;;3.97;2.37;;;24.20;99.90;;;;;;5017297;28;20438;-50
2021/08/09 10:15:57;;;;;;;3.23;2.17;;;24.10;99.90;;;;;;5017273;28;20888;-46
2021/08/09 10:18:26;;;;;;;6.20;2.70;;;24.00;99.90;;;;;;5016972;28;20513;-49
2021/08/09 10:20:53;;;;;;;5.07;2.47;;;24.00;99.90;;;;;;5017010;28;20480;-47
2021/08/09 10:23:40;;;;;;;7.17;2.87;;;24.30;99.90;;;;;;5017057;28;20448;-44
2021/08/09 10:26:10;;;;;;;3.20;2.33;;;24.40;99.90;;;;;;5016928;28;20421;-46
2021/08/09 10:29:04;;;;;;;4.20;2.70;;;24.60;99.90;;;;;;5017209;28;20537;-49
2021/08/09 10:31:33;;;;;;;4.03;3.20;;;25.00;99.70;;;;;;5017053;28;20433;-48
2021/08/09 10:34:00;;;;;;;8.97;3.67;;;25.50;98.10;;;;;;5017517;28;20450;-49
2021/08/09 10:36:27;;;;;;;2.73;2.30;;;25.60;97.30;;;;;;5017220;28;20450;-48
2021/08/09 10:38:56;;;;;;;3.50;2.73;;;25.90;97.50;;;;;;5017053;28;20504;-48
2021/08/09 10:41:30;;;;;;;3.20;2.87;;;26.40;95.40;;;;;;5017056;28;20512;-48
2021/08/09 10:44:22;;;;;;;5.00;2.30;;;26.90;93.50;;;;;;5017107;28;20502;-48
2021/08/09 10:46:51;;;;;;;5.87;2.80;;;27.10;92.70;;;;;;5017215;28;20441;-48
2021/08/09 10:49:49;;;;;;;6.10;3.70;;;27.30;93.30;;;;;;5017493;28;20438;-50
2021/08/09 10:52:36;;;;;;;3.70;2.27;;;27.60;91.10;;;;;;4939192;29;20450;-49
2021/08/09 10:55:45;;;;;;;4.33;2.50;;;27.60;88.20;;;;;;5014284;28;20462;-46
2021/08/09 10:58:51;;;;;;;3.77;1.87;;;27.50;86.30;;;;;;5020748;28;20505;-50
2021/08/09 11:01:22;;;;;;;2.90;1.73;;;27.50;78.90;;;;;;5021059;28;20458;-46
2021/08/09 11:04:14;;;;;;;3.83;2.50;;;27.20;81.50;;;;;;5020942;28;20510;-49
2021/08/09 11:06:45;;;;;;;3.73;2.13;;;26.90;81.10;;;;;;5020714;28;20505;-47
2021/08/09 11:09:42;;;;;;;2.73;2.10;;;26.70;81.60;;;;;;5020525;28;20438;-47
2021/08/09 11:12:14;;;;;;;2.40;1.90;;;26.20;80.20;;;;;;5020447;28;20429;-47
2021/08/09 11:15:15;;;;;;;2.50;2.30;;;25.90;82.90;;;;;;5020673;28;20426;-47
2021/08/09 11:18:18;;;;;;;2.27;1.60;;;26.10;85.90;;;;;;5020822;28;20432;-48
2021/08/09 11:20:45;;;;;;;6.27;2.57;;;26.40;82.50;;;;;;5020512;28;20406;-51
2021/08/09 11:23:14;;;;;;;3.73;2.77;;;26.60;80.00;;;;;;5020247;28;20442;-45
2021/08/09 11:25:43;;;;;;;3.33;2.00;;;26.50;79.30;;;;;;5020303;28;20462;-45
2021/08/09 11:28:16;;;;;;;2.90;2.53;;;26.60;79.90;;;;;;5020629;28;20468;-48
2021/08/09 11:30:48;;;;;;;2.97;1.90;;;26.60;79.60;;;;;;5020338;28;20450;-48
2021/08/09 11:33:41;;;;;;;3.90;2.53;;;26.70;80.20;;;;;;5020409;28;20423;-49
2021/08/09 11:36:09;;;;;;;3.63;1.57;;;26.60;79.80;;;;;;5002011;28;20468;-48
2021/08/09 11:38:44;;;;;;;3.30;2.27;;;26.50;78.60;;;;;;5019607;28;20481;-49
2021/08/09 11:41:12;;;;;;;4.13;2.27;;;26.40;80.10;;;;;;5020187;28;20449;-49
2021/08/09 11:43:40;;;;;;;4.77;2.23;;;26.20;78.20;;;;;;5019265;28;20537;-46
2021/08/09 11:46:09;;;;;;;5.67;2.10;;;26.20;77.10;;;;;;5019971;28;20446;-49
2021/08/09 11:48:37;;;;;;;3.73;2.20;;;26.20;76.20;;;;;;5019466;28;20445;-49
2021/08/09 11:51:06;;;;;;;1.73;1.57;;;26.20;77.00;;;;;;5019510;28;20522;-49
2021/08/09 11:53:34;;;;;;;3.30;2.00;;;26.20;75.90;;;;;;5019181;28;20456;-50
2021/08/09 11:56:05;;;;;;;2.43;2.00;;;26.20;74.80;;;;;;5019807;28;20434;-50
2021/08/09 11:58:32;;;;;;;3.57;2.30;;;26.20;74.50;;;;;;5019869;28;20564;-48
2021/08/09 12:01:00;;;;;;;4.53;2.90;;;26.00;75.40;;;;;;5019256;28;20426;-44
2021/08/09 12:03:29;;;;;;;4.33;2.20;;;26.00;75.90;;;;;;5019672;28;20493;-49
2021/08/09 12:05:57;;;;;;;5.00;1.90;;;26.00;76.80;;;;;;5018910;28;20433;-45
2021/08/09 12:08:25;;;;;;;3.60;2.20;;;25.90;75.60;;;;;;5019341;28;20497;-46
2021/08/09 12:10:52;;;;;;;3.63;2.30;;;25.80;75.70;;;;;;5019438;28;20477;-45
2021/08/09 12:13:31;;;;;;;2.87;2.33;;;25.80;76.00;;;;;;5019328;28;20428;-46
2021/08/09 12:16:12;;;;;;;2.37;2.10;;;25.70;75.40;;;;;;5019354;28;20454;-48
2021/08/09 12:18:51;;;;;;;3.17;2.50;;;25.60;74.90;;;;;;5019200;28;20437;-50
2021/08/09 12:21:18;;;;;;;4.40;3.80;;;25.50;75.00;;;;;;5018770;28;20446;-48
2021/08/09 12:23:57;;;;;;;7.57;4.13;;;25.60;75.90;;;;;;5019180;28;20452;-49
2021/08/09 12:26:30;;;;;;;2.63;1.77;;;25.50;75.80;;;;;;5019228;28;20426;-49
2021/08/09 12:28:58;;;;;;;3.73;2.10;;;25.50;75.70;;;;;;5018685;28;20419;-48
2021/08/09 12:31:39;;;;;;;3.80;1.67;;;25.40;73.40;;;;;;5019228;28;20446;-47
2021/08/09 12:34:08;;;;;;;2.53;1.83;;;25.30;72.60;;;;;;5019173;28;20457;-44
2021/08/09 12:36:36;;;;;;;3.43;2.10;;;25.20;74.50;;;;;;5019052;28;20465;-49
2021/08/09 12:39:05;;;;;;;2.73;2.17;;;25.20;74.50;;;;;;5018925;28;20474;-48
2021/08/09 12:41:33;;;;;;;2.80;2.33;;;25.10;76.40;;;;;;5018433;28;20442;-51
2021/08/09 12:44:02;;;;;;;3.30;2.40;;;25.00;76.40;;;;;;5018401;28;20426;-50
2021/08/09 12:46:29;;;;;;;3.60;2.30;;;25.10;76.60;;;;;;5018973;28;20438;-48
2021/08/09 12:48:57;;;;;;;4.80;3.07;;;25.10;76.10;;;;;;5019019;28;20498;-49
2021/08/09 12:54:01;;;;;;;6.03;2.30;;;25.10;73.70;;;;;;5024842;23;20493;-49
2021/08/09 12:56:31;;;;;;;5.57;2.07;;;25.10;73.10;;;;;;5017857;28;20437;-50
2021/08/09 12:58:58;;;;;;;4.00;2.90;;;25.00;72.20;;;;;;5017742;28;20462;-48
2021/08/09 13:01:27;;;;;;;6.03;3.60;;;25.00;73.10;;;;;;5017602;28;20446;-50